sensor_id;sensor_type;location;lat;lon;timestamp;pressure;altitude;pressure_sealevel;temperature;humidity
77011;BME280;65945;53.148;17.956;2024-01-11T00:01:20;102233.31;;;-3.86;96.16
77011;BME280;65945;53.148;17.956;2024-01-11T00:03:46;102236.79;;;-3.84;96.22
77011;BME280;65945;53.148;17.956;2024-01-11T00:06:13;102229.13;;;-3.81;96.21
77011;BME280;65945;53.148;17.956;2024-01-11T00:08:39;102222.02;;;-3.78;96.35
77011;BME280;65945;53.148;17.956;2024-01-11T00:11:06;102213.02;;;-3.75;96.57
77011;BME280;65945;53.148;17.956;2024-01-11T00:13:33;102214.17;;;-3.70;96.78
77011;BME280;65945;53.148;17.956;2024-01-11T00:15:59;102203.48;;;-3.68;96.74
77011;BME280;65945;53.148;17.956;2024-01-11T00:18:26;102194.48;;;-3.65;96.83
77011;BME280;65945;53.148;17.956;2024-01-11T00:20:52;102207.34;;;-3.61;96.86
77011;BME280;65945;53.148;17.956;2024-01-11T00:23:19;102204.19;;;-3.58;97.13
77011;BME280;65945;53.148;17.956;2024-01-11T00:25:46;102191.20;;;-3.55;97.21
77011;BME280;65945;53.148;17.956;2024-01-11T00:28:12;102187.14;;;-3.53;97.33
77011;BME280;65945;53.148;17.956;2024-01-11T00:30:39;102196.35;;;-3.50;97.28
77011;BME280;65945;53.148;17.956;2024-01-11T00:33:05;102203.41;;;-3.48;97.16
77011;BME280;65945;53.148;17.956;2024-01-11T00:35:33;102199.52;;;-3.45;97.06
77011;BME280;65945;53.148;17.956;2024-01-11T00:37:59;102177.40;;;-3.43;97.00
77011;BME280;65945;53.148;17.956;2024-01-11T00:40:26;102164.23;;;-3.43;97.14
77011;BME280;65945;53.148;17.956;2024-01-11T00:42:53;102154.82;;;-3.43;96.79
77011;BME280;65945;53.148;17.956;2024-01-11T00:45:19;102139.14;;;-3.42;96.72
77011;BME280;65945;53.148;17.956;2024-01-11T00:47:46;102138.02;;;-3.41;96.79
77011;BME280;65945;53.148;17.956;2024-01-11T00:50:12;102142.33;;;-3.41;96.63
77011;BME280;65945;53.148;17.956;2024-01-11T00:52:39;102142.16;;;-3.41;96.61
77011;BME280;65945;53.148;17.956;2024-01-11T00:55:06;102146.45;;;-3.40;96.78
77011;BME280;65945;53.148;17.956;2024-01-11T00:57:33;102158.01;;;-3.41;96.89
77011;BME280;65945;53.148;17.956;2024-01-11T01:00:00;102158.92;;;-3.40;96.90
77011;BME280;65945;53.148;17.956;2024-01-11T01:02:26;102148.56;;;-3.38;96.89
77011;BME280;65945;53.148;17.956;2024-01-11T01:04:53;102147.91;;;-3.37;96.93
77011;BME280;65945;53.148;17.956;2024-01-11T01:07:19;102153.50;;;-3.35;97.13
77011;BME280;65945;53.148;17.956;2024-01-11T01:09:46;102163.48;;;-3.35;97.19
77011;BME280;65945;53.148;17.956;2024-01-11T01:12:13;102164.29;;;-3.35;97.34
77011;BME280;65945;53.148;17.956;2024-01-11T01:14:39;102157.24;;;-3.34;97.19
77011;BME280;65945;53.148;17.956;2024-01-11T01:17:06;102155.70;;;-3.33;97.31
77011;BME280;65945;53.148;17.956;2024-01-11T01:19:32;102153.31;;;-3.32;97.37
77011;BME280;65945;53.148;17.956;2024-01-11T01:21:59;102145.54;;;-3.31;97.57
77011;BME280;65945;53.148;17.956;2024-01-11T01:24:26;102143.77;;;-3.31;97.36
77011;BME280;65945;53.148;17.956;2024-01-11T01:26:53;102139.08;;;-3.30;97.35
77011;BME280;65945;53.148;17.956;2024-01-11T01:29:19;102157.52;;;-3.30;97.37
77011;BME280;65945;53.148;17.956;2024-01-11T01:31:46;102161.14;;;-3.29;97.31
77011;BME280;65945;53.148;17.956;2024-01-11T01:34:13;102153.70;;;-3.28;97.11
77011;BME280;65945;53.148;17.956;2024-01-11T01:36:41;102149.83;;;-3.25;97.12
77011;BME280;65945;53.148;17.956;2024-01-11T01:39:07;102151.70;;;-3.22;97.19
77011;BME280;65945;53.148;17.956;2024-01-11T01:41:34;102156.64;;;-3.21;97.21
77011;BME280;65945;53.148;17.956;2024-01-11T01:44:01;102160.48;;;-3.20;97.29
77011;BME280;65945;53.148;17.956;2024-01-11T01:46:27;102172.39;;;-3.19;97.24
77011;BME280;65945;53.148;17.956;2024-01-11T01:48:57;102165.92;;;-3.18;97.17
77011;BME280;65945;53.148;17.956;2024-01-11T01:51:26;102164.04;;;-3.16;97.24
77011;BME280;65945;53.148;17.956;2024-01-11T01:53:56;102175.52;;;-3.13;97.13
77011;BME280;65945;53.148;17.956;2024-01-11T01:56:23;102177.27;;;-3.11;97.26
77011;BME280;65945;53.148;17.956;2024-01-11T01:58:52;102181.83;;;-3.09;97.17
77011;BME280;65945;53.148;17.956;2024-01-11T02:01:20;102186.34;;;-3.06;97.07
77011;BME280;65945;53.148;17.956;2024-01-11T02:03:51;102182.16;;;-3.02;97.12
77011;BME280;65945;53.148;17.956;2024-01-11T02:06:21;102172.98;;;-2.97;97.22
77011;BME280;65945;53.148;17.956;2024-01-11T02:08:51;102175.14;;;-2.90;97.22
77011;BME280;65945;53.148;17.956;2024-01-11T02:11:20;102179.43;;;-2.84;97.36
77011;BME280;65945;53.148;17.956;2024-01-11T02:13:49;102168.31;;;-2.78;97.35
77011;BME280;65945;53.148;17.956;2024-01-11T02:16:15;102167.89;;;-2.72;97.39
77011;BME280;65945;53.148;17.956;2024-01-11T02:18:43;102172.45;;;-2.65;97.59
77011;BME280;65945;53.148;17.956;2024-01-11T02:21:11;102163.89;;;-2.58;97.78
77011;BME280;65945;53.148;17.956;2024-01-11T02:23:44;102169.13;;;-2.51;97.89
77011;BME280;65945;53.148;17.956;2024-01-11T02:26:13;102171.19;;;-2.44;97.78
77011;BME280;65945;53.148;17.956;2024-01-11T02:28:44;102164.55;;;-2.37;97.90
77011;BME280;65945;53.148;17.956;2024-01-11T02:31:13;102159.17;;;-2.30;98.12
77011;BME280;65945;53.148;17.956;2024-01-11T02:33:41;102150.11;;;-2.23;98.20
77011;BME280;65945;53.148;17.956;2024-01-11T02:36:08;102144.01;;;-2.17;98.27
77011;BME280;65945;53.148;17.956;2024-01-11T02:38:35;102133.30;;;-2.12;98.17
77011;BME280;65945;53.148;17.956;2024-01-11T02:41:02;102130.52;;;-2.08;98.15
77011;BME280;65945;53.148;17.956;2024-01-11T02:43:29;102130.36;;;-2.03;98.14
77011;BME280;65945;53.148;17.956;2024-01-11T02:45:56;102132.45;;;-1.99;98.04
77011;BME280;65945;53.148;17.956;2024-01-11T02:48:33;102135.42;;;-1.94;97.92
77011;BME280;65945;53.148;17.956;2024-01-11T02:51:00;102129.78;;;-1.91;98.15
77011;BME280;65945;53.148;17.956;2024-01-11T02:53:27;102123.63;;;-1.87;98.25
77011;BME280;65945;53.148;17.956;2024-01-11T02:55:53;102121.70;;;-1.83;98.17
77011;BME280;65945;53.148;17.956;2024-01-11T02:58:20;102112.27;;;-1.81;98.31
77011;BME280;65945;53.148;17.956;2024-01-11T03:00:46;102105.70;;;-1.78;98.10
77011;BME280;65945;53.148;17.956;2024-01-11T03:03:13;102104.95;;;-1.76;98.03
77011;BME280;65945;53.148;17.956;2024-01-11T03:05:40;102099.20;;;-1.73;98.02
77011;BME280;65945;53.148;17.956;2024-01-11T03:08:07;102102.45;;;-1.70;97.94
77011;BME280;65945;53.148;17.956;2024-01-11T03:10:33;102102.03;;;-1.67;97.88
77011;BME280;65945;53.148;17.956;2024-01-11T03:13:00;102106.55;;;-1.65;98.05
77011;BME280;65945;53.148;17.956;2024-01-11T03:15:26;102090.22;;;-1.62;98.01
77011;BME280;65945;53.148;17.956;2024-01-11T03:17:53;102078.46;;;-1.59;98.30
77011;BME280;65945;53.148;17.956;2024-01-11T03:20:19;102068.31;;;-1.58;98.14
77011;BME280;65945;53.148;17.956;2024-01-11T03:22:51;102065.88;;;-1.56;98.08
77011;BME280;65945;53.148;17.956;2024-01-11T03:25:19;102051.57;;;-1.55;98.25
77011;BME280;65945;53.148;17.956;2024-01-11T03:27:45;102052.50;;;-1.54;98.24
77011;BME280;65945;53.148;17.956;2024-01-11T03:30:12;102049.89;;;-1.52;98.40
77011;BME280;65945;53.148;17.956;2024-01-11T03:32:39;102047.71;;;-1.51;98.37
77011;BME280;65945;53.148;17.956;2024-01-11T03:35:07;102062.86;;;-1.49;98.48
77011;BME280;65945;53.148;17.956;2024-01-11T03:37:35;102060.95;;;-1.47;98.36
77011;BME280;65945;53.148;17.956;2024-01-11T03:40:03;102061.36;;;-1.45;98.14
77011;BME280;65945;53.148;17.956;2024-01-11T03:42:30;102064.38;;;-1.44;98.23
77011;BME280;65945;53.148;17.956;2024-01-11T03:44:56;102057.98;;;-1.43;98.15
77011;BME280;65945;53.148;17.956;2024-01-11T03:47:23;102063.15;;;-1.41;98.32
77011;BME280;65945;53.148;17.956;2024-01-11T03:49:49;102058.66;;;-1.39;98.03
77011;BME280;65945;53.148;17.956;2024-01-11T03:52:16;102048.20;;;-1.37;98.07
77011;BME280;65945;53.148;17.956;2024-01-11T03:54:42;102034.16;;;-1.36;97.96
77011;BME280;65945;53.148;17.956;2024-01-11T03:57:09;102022.96;;;-1.35;98.06
77011;BME280;65945;53.148;17.956;2024-01-11T03:59:36;102022.60;;;-1.34;98.14
77011;BME280;65945;53.148;17.956;2024-01-11T04:02:02;102018.08;;;-1.32;98.17
77011;BME280;65945;53.148;17.956;2024-01-11T04:04:29;102017.68;;;-1.30;98.05
77011;BME280;65945;53.148;17.956;2024-01-11T04:06:55;102014.66;;;-1.29;98.28
77011;BME280;65945;53.148;17.956;2024-01-11T04:09:22;101998.44;;;-1.28;98.14
77011;BME280;65945;53.148;17.956;2024-01-11T04:11:49;101981.34;;;-1.27;98.24
77011;BME280;65945;53.148;17.956;2024-01-11T04:14:15;101976.23;;;-1.26;98.12
77011;BME280;65945;53.148;17.956;2024-01-11T04:16:42;101974.19;;;-1.25;97.96
77011;BME280;65945;53.148;17.956;2024-01-11T04:19:09;101967.48;;;-1.24;98.20
77011;BME280;65945;53.148;17.956;2024-01-11T04:21:36;101959.57;;;-1.24;98.12
77011;BME280;65945;53.148;17.956;2024-01-11T04:24:06;101963.05;;;-1.22;98.17
77011;BME280;65945;53.148;17.956;2024-01-11T04:26:33;101979.23;;;-1.22;98.19
77011;BME280;65945;53.148;17.956;2024-01-11T04:29:00;101976.05;;;-1.20;98.30
77011;BME280;65945;53.148;17.956;2024-01-11T04:31:27;101970.30;;;-1.19;97.96
77011;BME280;65945;53.148;17.956;2024-01-11T04:33:53;101973.88;;;-1.18;98.31
77011;BME280;65945;53.148;17.956;2024-01-11T04:36:20;101960.92;;;-1.17;98.02
77011;BME280;65945;53.148;17.956;2024-01-11T04:38:47;101949.86;;;-1.15;97.90
77011;BME280;65945;53.148;17.956;2024-01-11T04:41:14;101953.93;;;-1.14;98.14
77011;BME280;65945;53.148;17.956;2024-01-11T04:43:43;101961.11;;;-1.11;98.03
77011;BME280;65945;53.148;17.956;2024-01-11T04:46:20;101968.42;;;-1.10;97.74
77011;BME280;65945;53.148;17.956;2024-01-11T04:48:48;101969.05;;;-1.08;97.68
77011;BME280;65945;53.148;17.956;2024-01-11T04:51:16;101968.74;;;-1.06;97.72
77011;BME280;65945;53.148;17.956;2024-01-11T04:53:44;101965.06;;;-1.04;97.51
77011;BME280;65945;53.148;17.956;2024-01-11T04:56:15;101960.02;;;-1.02;97.62
77011;BME280;65945;53.148;17.956;2024-01-11T04:58:43;101945.62;;;-1.00;97.52
77011;BME280;65945;53.148;17.956;2024-01-11T05:01:14;101949.58;;;-0.99;97.82
77011;BME280;65945;53.148;17.956;2024-01-11T05:03:42;101958.75;;;-0.97;97.68
77011;BME280;65945;53.148;17.956;2024-01-11T05:06:15;101962.70;;;-0.96;97.64
77011;BME280;65945;53.148;17.956;2024-01-11T05:08:44;101967.19;;;-0.94;97.34
77011;BME280;65945;53.148;17.956;2024-01-11T05:11:22;101960.39;;;-0.92;97.60
77011;BME280;65945;53.148;17.956;2024-01-11T05:13:51;101963.36;;;-0.90;97.53
77011;BME280;65945;53.148;17.956;2024-01-11T05:16:27;101955.61;;;-0.88;97.53
77011;BME280;65945;53.148;17.956;2024-01-11T05:18:55;101943.88;;;-0.85;97.50
77011;BME280;65945;53.148;17.956;2024-01-11T05:21:23;101944.21;;;-0.84;97.26
77011;BME280;65945;53.148;17.956;2024-01-11T05:23:50;101952.32;;;-0.82;97.50
77011;BME280;65945;53.148;17.956;2024-01-11T05:26:18;101949.77;;;-0.80;97.23
77011;BME280;65945;53.148;17.956;2024-01-11T05:28:45;101947.48;;;-0.79;97.30
77011;BME280;65945;53.148;17.956;2024-01-11T05:31:13;101955.17;;;-0.78;97.21
77011;BME280;65945;53.148;17.956;2024-01-11T05:33:43;101947.04;;;-0.77;97.08
77011;BME280;65945;53.148;17.956;2024-01-11T05:36:10;101951.38;;;-0.75;97.17
77011;BME280;65945;53.148;17.956;2024-01-11T05:38:38;101950.65;;;-0.74;97.13
77011;BME280;65945;53.148;17.956;2024-01-11T05:41:05;101957.08;;;-0.73;96.92
77011;BME280;65945;53.148;17.956;2024-01-11T05:43:32;101950.78;;;-0.72;96.87
77011;BME280;65945;53.148;17.956;2024-01-11T05:45:58;101958.00;;;-0.70;97.00
77011;BME280;65945;53.148;17.956;2024-01-11T05:48:25;101946.67;;;-0.69;96.61
77011;BME280;65945;53.148;17.956;2024-01-11T05:50:52;101956.52;;;-0.67;97.08
77011;BME280;65945;53.148;17.956;2024-01-11T05:53:18;101951.02;;;-0.66;96.90
77011;BME280;65945;53.148;17.956;2024-01-11T05:55:47;101942.19;;;-0.65;96.82
77011;BME280;65945;53.148;17.956;2024-01-11T05:58:14;101936.15;;;-0.65;97.05
77011;BME280;65945;53.148;17.956;2024-01-11T06:00:40;101935.48;;;-0.64;96.97
77011;BME280;65945;53.148;17.956;2024-01-11T06:03:08;101928.39;;;-0.63;96.91
77011;BME280;65945;53.148;17.956;2024-01-11T06:05:35;101920.36;;;-0.62;96.86
77011;BME280;65945;53.148;17.956;2024-01-11T06:08:01;101921.02;;;-0.62;96.80
77011;BME280;65945;53.148;17.956;2024-01-11T06:10:28;101926.52;;;-0.61;96.75
77011;BME280;65945;53.148;17.956;2024-01-11T06:12:54;101927.85;;;-0.61;96.88
77011;BME280;65945;53.148;17.956;2024-01-11T06:15:22;101929.38;;;-0.61;96.93
77011;BME280;65945;53.148;17.956;2024-01-11T06:17:49;101924.48;;;-0.60;96.76
77011;BME280;65945;53.148;17.956;2024-01-11T06:20:16;101916.14;;;-0.60;96.62
77011;BME280;65945;53.148;17.956;2024-01-11T06:22:42;101913.32;;;-0.59;96.79
77011;BME280;65945;53.148;17.956;2024-01-11T06:25:09;101916.38;;;-0.58;96.94
77011;BME280;65945;53.148;17.956;2024-01-11T06:27:35;101918.74;;;-0.58;96.64
77011;BME280;65945;53.148;17.956;2024-01-11T06:30:03;101918.55;;;-0.57;96.60
77011;BME280;65945;53.148;17.956;2024-01-11T06:32:29;101911.13;;;-0.57;96.60
77011;BME280;65945;53.148;17.956;2024-01-11T06:34:56;101915.49;;;-0.56;96.48
77011;BME280;65945;53.148;17.956;2024-01-11T06:37:23;101924.61;;;-0.55;96.74
77011;BME280;65945;53.148;17.956;2024-01-11T06:39:49;101922.79;;;-0.53;96.62
77011;BME280;65945;53.148;17.956;2024-01-11T06:42:16;101917.01;;;-0.52;96.71
77011;BME280;65945;53.148;17.956;2024-01-11T06:44:42;101917.88;;;-0.52;96.68
77011;BME280;65945;53.148;17.956;2024-01-11T06:47:09;101913.26;;;-0.50;96.47
77011;BME280;65945;53.148;17.956;2024-01-11T06:49:38;101908.70;;;-0.49;96.51
77011;BME280;65945;53.148;17.956;2024-01-11T06:52:08;101908.30;;;-0.48;96.55
77011;BME280;65945;53.148;17.956;2024-01-11T06:54:35;101903.52;;;-0.46;96.26
77011;BME280;65945;53.148;17.956;2024-01-11T06:57:01;101895.61;;;-0.44;96.51
77011;BME280;65945;53.148;17.956;2024-01-11T06:59:28;101902.52;;;-0.42;96.48
77011;BME280;65945;53.148;17.956;2024-01-11T07:01:55;101907.91;;;-0.40;96.27
77011;BME280;65945;53.148;17.956;2024-01-11T07:04:21;101908.67;;;-0.38;96.41
77011;BME280;65945;53.148;17.956;2024-01-11T07:06:48;101903.90;;;-0.37;96.32
77011;BME280;65945;53.148;17.956;2024-01-11T07:09:15;101906.05;;;-0.35;96.44
77011;BME280;65945;53.148;17.956;2024-01-11T07:11:43;101910.56;;;-0.33;96.37
77011;BME280;65945;53.148;17.956;2024-01-11T07:14:10;101908.88;;;-0.33;96.25
77011;BME280;65945;53.148;17.956;2024-01-11T07:16:37;101919.02;;;-0.33;96.31
77011;BME280;65945;53.148;17.956;2024-01-11T07:19:04;101918.30;;;-0.31;96.35
77011;BME280;65945;53.148;17.956;2024-01-11T07:21:31;101915.53;;;-0.30;96.40
77011;BME280;65945;53.148;17.956;2024-01-11T07:24:01;101910.70;;;-0.29;96.19
77011;BME280;65945;53.148;17.956;2024-01-11T07:26:27;101916.55;;;-0.27;96.17
77011;BME280;65945;53.148;17.956;2024-01-11T07:28:54;101914.79;;;-0.25;96.27
77011;BME280;65945;53.148;17.956;2024-01-11T07:31:21;101898.77;;;-0.24;96.31
77011;BME280;65945;53.148;17.956;2024-01-11T07:33:48;101889.89;;;-0.22;96.41
77011;BME280;65945;53.148;17.956;2024-01-11T07:36:15;101888.98;;;-0.20;96.24
77011;BME280;65945;53.148;17.956;2024-01-11T07:38:41;101882.94;;;-0.18;96.07
77011;BME280;65945;53.148;17.956;2024-01-11T07:41:08;101877.72;;;-0.16;96.35
77011;BME280;65945;53.148;17.956;2024-01-11T07:43:35;101876.19;;;-0.14;96.23
77011;BME280;65945;53.148;17.956;2024-01-11T07:46:02;101879.99;;;-0.13;96.24
77011;BME280;65945;53.148;17.956;2024-01-11T07:48:29;101875.91;;;-0.10;96.35
77011;BME280;65945;53.148;17.956;2024-01-11T07:50:57;101883.52;;;-0.09;96.52
77011;BME280;65945;53.148;17.956;2024-01-11T07:53:24;101885.16;;;-0.07;96.32
77011;BME280;65945;53.148;17.956;2024-01-11T07:55:51;101886.13;;;-0.04;96.35
77011;BME280;65945;53.148;17.956;2024-01-11T07:58:18;101880.84;;;-0.02;96.05
77011;BME280;65945;53.148;17.956;2024-01-11T08:00:47;101884.64;;;-0.01;96.37
77011;BME280;65945;53.148;17.956;2024-01-11T08:03:15;101889.02;;;0.02;96.15
77011;BME280;65945;53.148;17.956;2024-01-11T08:05:42;101894.94;;;0.04;96.13
77011;BME280;65945;53.148;17.956;2024-01-11T08:08:09;101893.16;;;0.06;96.21
77011;BME280;65945;53.148;17.956;2024-01-11T08:10:36;101891.40;;;0.09;96.35
77011;BME280;65945;53.148;17.956;2024-01-11T08:13:03;101895.84;;;0.11;96.38
77011;BME280;65945;53.148;17.956;2024-01-11T08:15:30;101900.77;;;0.15;96.18
77011;BME280;65945;53.148;17.956;2024-01-11T08:17:56;101900.73;;;0.17;96.35
77011;BME280;65945;53.148;17.956;2024-01-11T08:20:23;101900.17;;;0.19;96.10
77011;BME280;65945;53.148;17.956;2024-01-11T08:22:50;101905.72;;;0.22;96.20
77011;BME280;65945;53.148;17.956;2024-01-11T08:25:16;101910.27;;;0.25;96.26
77011;BME280;65945;53.148;17.956;2024-01-11T08:27:44;101914.48;;;0.27;96.40
77011;BME280;65945;53.148;17.956;2024-01-11T08:30:10;101916.56;;;0.29;96.03
77011;BME280;65945;53.148;17.956;2024-01-11T08:32:39;101910.02;;;0.32;96.38
77011;BME280;65945;53.148;17.956;2024-01-11T08:35:09;101895.71;;;0.34;96.11
77011;BME280;65945;53.148;17.956;2024-01-11T08:37:36;101895.52;;;0.36;96.17
77011;BME280;65945;53.148;17.956;2024-01-11T08:40:03;101899.42;;;0.38;95.93
77011;BME280;65945;53.148;17.956;2024-01-11T08:42:32;101896.17;;;0.40;95.93
77011;BME280;65945;53.148;17.956;2024-01-11T08:44:59;101898.35;;;0.43;96.01
77011;BME280;65945;53.148;17.956;2024-01-11T08:47:33;101901.39;;;0.45;95.88
77011;BME280;65945;53.148;17.956;2024-01-11T08:50:01;101897.65;;;0.47;95.99
77011;BME280;65945;53.148;17.956;2024-01-11T08:52:33;101892.81;;;0.48;95.92
77011;BME280;65945;53.148;17.956;2024-01-11T08:55:00;101900.98;;;0.50;95.77
77011;BME280;65945;53.148;17.956;2024-01-11T08:57:26;101905.58;;;0.52;95.57
77011;BME280;65945;53.148;17.956;2024-01-11T08:59:53;101913.70;;;0.55;95.71
77011;BME280;65945;53.148;17.956;2024-01-11T09:02:21;101917.40;;;0.57;95.64
77011;BME280;65945;53.148;17.956;2024-01-11T09:04:48;101927.86;;;0.59;95.79
77011;BME280;65945;53.148;17.956;2024-01-11T09:07:15;101931.87;;;0.61;95.79
77011;BME280;65945;53.148;17.956;2024-01-11T09:09:42;101933.48;;;0.64;95.58
77011;BME280;65945;53.148;17.956;2024-01-11T09:12:08;101934.85;;;0.67;95.52
77011;BME280;65945;53.148;17.956;2024-01-11T09:14:35;101933.92;;;0.69;95.45
77011;BME280;65945;53.148;17.956;2024-01-11T09:17:02;101935.00;;;0.71;95.62
77011;BME280;65945;53.148;17.956;2024-01-11T09:19:28;101927.44;;;0.73;95.49
77011;BME280;65945;53.148;17.956;2024-01-11T09:21:55;101925.27;;;0.75;95.38
77011;BME280;65945;53.148;17.956;2024-01-11T09:24:22;101921.97;;;0.76;95.36
77011;BME280;65945;53.148;17.956;2024-01-11T09:26:48;101923.56;;;0.77;95.26
77011;BME280;65945;53.148;17.956;2024-01-11T09:29:16;101928.52;;;0.79;95.28
77011;BME280;65945;53.148;17.956;2024-01-11T09:31:43;101923.38;;;0.81;95.12
77011;BME280;65945;53.148;17.956;2024-01-11T09:34:10;101923.86;;;0.84;95.27
77011;BME280;65945;53.148;17.956;2024-01-11T09:36:37;101923.30;;;0.86;95.25
77011;BME280;65945;53.148;17.956;2024-01-11T09:39:05;101930.84;;;0.87;95.14
77011;BME280;65945;53.148;17.956;2024-01-11T09:41:35;101924.31;;;0.89;95.11
77011;BME280;65945;53.148;17.956;2024-01-11T09:44:04;101924.59;;;0.91;94.89
77011;BME280;65945;53.148;17.956;2024-01-11T09:46:31;101917.38;;;0.93;94.95
77011;BME280;65945;53.148;17.956;2024-01-11T09:49:00;101918.17;;;0.95;95.04
77011;BME280;65945;53.148;17.956;2024-01-11T09:51:29;101917.08;;;0.96;94.85
77011;BME280;65945;53.148;17.956;2024-01-11T09:53:58;101914.92;;;0.97;94.91
77011;BME280;65945;53.148;17.956;2024-01-11T09:56:25;101915.89;;;0.99;95.00
77011;BME280;65945;53.148;17.956;2024-01-11T09:58:54;101918.63;;;1.00;94.88
77011;BME280;65945;53.148;17.956;2024-01-11T10:01:21;101918.90;;;1.01;94.82
77011;BME280;65945;53.148;17.956;2024-01-11T10:03:49;101917.13;;;1.04;94.77
77011;BME280;65945;53.148;17.956;2024-01-11T10:06:17;101912.18;;;1.07;94.91
77011;BME280;65945;53.148;17.956;2024-01-11T10:08:43;101907.99;;;1.11;94.78
77011;BME280;65945;53.148;17.956;2024-01-11T10:11:10;101902.63;;;1.16;94.75
77011;BME280;65945;53.148;17.956;2024-01-11T10:13:37;101910.88;;;1.21;94.52
77011;BME280;65945;53.148;17.956;2024-01-11T10:16:09;101913.69;;;1.25;94.59
77011;BME280;65945;53.148;17.956;2024-01-11T10:18:36;101913.87;;;1.30;94.34
77011;BME280;65945;53.148;17.956;2024-01-11T10:21:03;101907.08;;;1.32;93.96
77011;BME280;65945;53.148;17.956;2024-01-11T10:23:33;101915.95;;;1.34;94.12
77011;BME280;65945;53.148;17.956;2024-01-11T10:26:00;101918.11;;;1.35;93.96
77011;BME280;65945;53.148;17.956;2024-01-11T10:28:27;101918.54;;;1.37;93.86
77011;BME280;65945;53.148;17.956;2024-01-11T10:30:53;101917.22;;;1.38;93.88
77011;BME280;65945;53.148;17.956;2024-01-11T10:33:21;101910.48;;;1.38;93.64
77011;BME280;65945;53.148;17.956;2024-01-11T10:35:49;101910.47;;;1.37;93.42
77011;BME280;65945;53.148;17.956;2024-01-11T10:38:17;101902.09;;;1.36;93.43
77011;BME280;65945;53.148;17.956;2024-01-11T10:40:44;101899.92;;;1.35;93.49
77011;BME280;65945;53.148;17.956;2024-01-11T10:43:13;101898.40;;;1.35;93.47
77011;BME280;65945;53.148;17.956;2024-01-11T10:45:42;101901.28;;;1.32;93.46
77011;BME280;65945;53.148;17.956;2024-01-11T10:48:15;101897.33;;;1.31;93.27
77011;BME280;65945;53.148;17.956;2024-01-11T10:50:44;101892.52;;;1.29;93.27
77011;BME280;65945;53.148;17.956;2024-01-11T10:53:41;101894.74;;;1.29;93.53
77011;BME280;65945;53.148;17.956;2024-01-11T10:56:09;101899.16;;;1.28;93.39
77011;BME280;65945;53.148;17.956;2024-01-11T10:58:41;101909.87;;;1.30;93.27
77011;BME280;65945;53.148;17.956;2024-01-11T11:01:12;101910.55;;;1.30;93.37
77011;BME280;65945;53.148;17.956;2024-01-11T11:03:40;101905.39;;;1.31;93.26
77011;BME280;65945;53.148;17.956;2024-01-11T11:06:10;101900.91;;;1.31;93.31
77011;BME280;65945;53.148;17.956;2024-01-11T11:08:38;101900.08;;;1.32;93.40
77011;BME280;65945;53.148;17.956;2024-01-11T11:11:06;101900.08;;;1.33;93.28
77011;BME280;65945;53.148;17.956;2024-01-11T11:13:33;101890.38;;;1.33;93.24
77011;BME280;65945;53.148;17.956;2024-01-11T11:16:03;101887.67;;;1.35;93.25
77011;BME280;65945;53.148;17.956;2024-01-11T11:18:31;101882.00;;;1.36;93.14
77011;BME280;65945;53.148;17.956;2024-01-11T11:20:58;101878.79;;;1.37;93.22
77011;BME280;65945;53.148;17.956;2024-01-11T11:23:25;101879.05;;;1.39;93.21
77011;BME280;65945;53.148;17.956;2024-01-11T11:25:54;101879.70;;;1.40;93.12
77011;BME280;65945;53.148;17.956;2024-01-11T11:28:23;101871.85;;;1.41;92.95
77011;BME280;65945;53.148;17.956;2024-01-11T11:30:50;101867.99;;;1.42;93.10
77011;BME280;65945;53.148;17.956;2024-01-11T11:33:25;101868.16;;;1.42;92.98
77011;BME280;65945;53.148;17.956;2024-01-11T11:35:53;101870.65;;;1.43;92.89
77011;BME280;65945;53.148;17.956;2024-01-11T11:38:25;101869.96;;;1.44;93.00
77011;BME280;65945;53.148;17.956;2024-01-11T11:40:53;101873.65;;;1.44;92.92
77011;BME280;65945;53.148;17.956;2024-01-11T11:43:21;101871.22;;;1.45;92.81
77011;BME280;65945;53.148;17.956;2024-01-11T11:45:50;101864.89;;;1.46;92.85
77011;BME280;65945;53.148;17.956;2024-01-11T11:51:11;101865.48;;;1.47;92.64
77011;BME280;65945;53.148;17.956;2024-01-11T11:53:40;101863.06;;;1.47;92.74
77011;BME280;65945;53.148;17.956;2024-01-11T11:56:07;101862.69;;;1.48;92.65
77011;BME280;65945;53.148;17.956;2024-01-11T11:58:38;101861.36;;;1.49;92.61
77011;BME280;65945;53.148;17.956;2024-01-11T12:01:07;101856.73;;;1.48;92.71
77011;BME280;65945;53.148;17.956;2024-01-11T12:03:40;101855.04;;;1.49;92.71
77011;BME280;65945;53.148;17.956;2024-01-11T12:06:09;101855.46;;;1.50;92.58
77011;BME280;65945;53.148;17.956;2024-01-11T12:08:37;101849.45;;;1.52;92.42
77011;BME280;65945;53.148;17.956;2024-01-11T12:11:04;101843.04;;;1.55;92.55
77011;BME280;65945;53.148;17.956;2024-01-11T12:13:32;101843.20;;;1.57;92.14
77011;BME280;65945;53.148;17.956;2024-01-11T12:15:59;101832.08;;;1.60;92.26
77011;BME280;65945;53.148;17.956;2024-01-11T12:18:26;101825.54;;;1.65;92.20
77011;BME280;65945;53.148;17.956;2024-01-11T12:20:52;101822.55;;;1.67;91.61
77011;BME280;65945;53.148;17.956;2024-01-11T12:23:20;101821.80;;;1.68;91.89
77011;BME280;65945;53.148;17.956;2024-01-11T12:25:47;101823.23;;;1.70;91.75
77011;BME280;65945;53.148;17.956;2024-01-11T12:28:14;101824.75;;;1.70;91.55
77011;BME280;65945;53.148;17.956;2024-01-11T12:30:41;101824.45;;;1.71;91.42
77011;BME280;65945;53.148;17.956;2024-01-11T12:33:09;101817.80;;;1.72;91.56
77011;BME280;65945;53.148;17.956;2024-01-11T12:35:36;101813.58;;;1.74;91.47
77011;BME280;65945;53.148;17.956;2024-01-11T12:38:05;101809.89;;;1.76;91.45
77011;BME280;65945;53.148;17.956;2024-01-11T12:40:41;101815.79;;;1.77;91.15
77011;BME280;65945;53.148;17.956;2024-01-11T12:43:08;101816.27;;;1.78;91.07
77011;BME280;65945;53.148;17.956;2024-01-11T12:45:35;101825.50;;;1.79;90.99
77011;BME280;65945;53.148;17.956;2024-01-11T12:48:02;101824.13;;;1.80;90.96